Time;durP1;ratioP1;P1;durP2;ratioP2;P2;SDS_P1;SDS_P2;PMS_P1;PMS_P2;Temp;Humidity;BMP_temperature;BMP_pressure;BME280_temperature;BME280_humidity;BME280_pressure;Samples;Min_cycle;Max_cycle;Signal;HPM_P1;HPM_P2
2021/10/02 09:51:41;;;;;;;4.35;3.95;;;13.70;99.90;;;;;;5071445;28;20596;-82
2021/10/02 09:54:07;;;;;;;3.42;3.22;;;13.90;99.90;;;;;;5071079;28;20169;-81
2021/10/02 09:56:33;;;;;;;3.63;3.38;;;13.90;99.90;;;;;;5070299;28;20222;-80
2021/10/02 09:58:59;;;;;;;3.50;3.22;;;14.30;99.90;;;;;;5070795;28;20570;-80
2021/10/02 10:01:26;;;;;;;3.65;3.35;;;14.00;99.90;;;;;;5070681;28;20179;-80
2021/10/02 10:03:53;;;;;;;3.53;3.33;;;14.40;99.90;;;;;;5070940;28;20168;-80
2021/10/02 10:06:20;;;;;;;3.50;3.20;;;14.10;99.90;;;;;;5070553;28;20184;-80
2021/10/02 10:09:04;;;;;;;3.38;3.08;;;14.00;99.90;;;;;;5070839;28;20165;-81
2021/10/02 10:11:52;;;;;;;4.22;3.83;;;14.00;99.90;;;;;;5070807;28;20203;-80
2021/10/02 10:14:23;;;;;;;3.38;3.17;;;14.00;99.90;;;;;;5070479;28;20149;-81
2021/10/02 10:16:52;;;;;;;3.70;3.03;;;14.00;99.90;;;;;;5070416;28;20256;-81
2021/10/02 10:19:26;;;;;;;5.47;2.90;;;14.10;99.90;;;;;;5069237;28;20165;-80
2021/10/02 10:22:09;;;;;;;2.60;2.47;;;14.30;99.90;;;;;;5070661;28;20168;-81
2021/10/02 10:24:37;;;;;;;4.03;2.97;;;14.50;99.90;;;;;;5070419;28;20161;-81
2021/10/02 10:27:04;;;;;;;2.50;2.25;;;14.40;99.90;;;;;;5070977;28;20172;-81
2021/10/02 10:29:40;;;;;;;2.78;2.67;;;14.60;99.90;;;;;;5070092;28;20577;-81
2021/10/02 10:32:08;;;;;;;2.78;2.50;;;14.40;99.90;;;;;;5070486;28;20687;-81
2021/10/02 10:34:38;;;;;;;4.13;2.40;;;14.30;99.90;;;;;;5068848;28;20543;-81
2021/10/02 10:37:06;;;;;;;2.88;2.70;;;14.20;99.90;;;;;;5068731;28;20172;-80
2021/10/02 10:39:34;;;;;;;4.93;2.50;;;14.20;99.90;;;;;;5070149;28;20177;-81
2021/10/02 10:42:02;;;;;;;3.08;2.88;;;14.10;99.90;;;;;;5069943;28;20173;-81
2021/10/02 10:44:28;;;;;;;2.50;2.30;;;14.20;99.90;;;;;;5069856;28;20187;-81
2021/10/02 10:46:54;;;;;;;2.80;2.65;;;14.30;99.90;;;;;;5069900;28;20169;-80
2021/10/02 10:49:23;;;;;;;2.88;2.72;;;14.40;99.90;;;;;;5068060;28;20544;-80
2021/10/02 10:51:49;;;;;;;2.45;2.25;;;14.40;99.90;;;;;;5070036;28;20161;-80
2021/10/02 10:54:16;;;;;;;2.38;2.28;;;14.40;99.90;;;;;;5069855;28;20523;-80
2021/10/02 10:56:49;;;;;;;3.22;2.22;;;14.60;99.90;;;;;;5069270;28;20252;-81
2021/10/02 10:59:24;;;;;;;2.15;2.05;;;14.80;99.90;;;;;;5069425;28;20202;-80
2021/10/02 11:01:50;;;;;;;2.47;2.38;;;15.00;99.90;;;;;;5063042;28;20196;-81
2021/10/02 11:04:31;;;;;;;2.40;2.30;;;15.30;99.90;;;;;;5056674;28;20214;-80
2021/10/02 11:06:59;;;;;;;2.42;2.30;;;15.20;99.90;;;;;;5055992;28;20169;-80
2021/10/02 11:09:39;;;;;;;2.17;1.85;;;15.20;99.90;;;;;;5055854;28;20256;-80
2021/10/02 11:12:09;;;;;;;2.00;1.90;;;15.30;99.90;;;;;;5055173;28;20515;-80
2021/10/02 11:14:46;;;;;;;2.10;2.00;;;15.30;99.90;;;;;;5055165;28;20664;-80
2021/10/02 11:17:33;;;;;;;2.10;2.00;;;15.30;99.90;;;;;;5056093;28;20227;-80
2021/10/02 11:20:21;;;;;;;1.90;1.80;;;15.30;99.90;;;;;;5055903;28;20188;-81
2021/10/02 11:23:13;;;;;;;2.00;1.90;;;15.20;99.90;;;;;;5055908;28;20635;-80
2021/10/02 11:25:42;;;;;;;2.10;2.00;;;15.30;99.90;;;;;;5056029;28;20294;-80
2021/10/02 11:28:37;;;;;;;1.80;1.70;;;15.40;99.90;;;;;;5055807;28;20169;-80
2021/10/02 11:31:13;;;;;;;1.90;1.80;;;15.50;99.90;;;;;;5050554;28;20331;-81
2021/10/02 11:33:52;;;;;;;2.13;1.92;;;15.90;99.90;;;;;;5056107;28;20160;-82
2021/10/02 11:36:32;;;;;;;3.60;1.60;;;15.70;99.90;;;;;;5056134;28;20154;-81
2021/10/02 11:39:18;;;;;;;2.00;1.90;;;15.80;99.90;;;;;;5056109;28;20497;-80
2021/10/02 11:41:48;;;;;;;1.63;1.60;;;15.90;99.90;;;;;;5055775;28;20157;-81
2021/10/02 11:44:32;;;;;;;1.70;1.60;;;15.90;99.90;;;;;;5055957;28;20248;-80
2021/10/02 11:47:34;;;;;;;2.00;1.65;;;15.90;99.90;;;;;;5056109;28;20184;-81
2021/10/02 11:50:11;;;;;;;1.73;1.63;;;15.70;99.90;;;;;;5055717;28;20216;-80
2021/10/02 11:52:39;;;;;;;1.92;1.52;;;15.70;99.90;;;;;;5055955;28;20169;-81
2021/10/02 11:55:33;;;;;;;1.85;1.70;;;15.70;99.90;;;;;;5055729;28;20172;-81
2021/10/02 11:58:08;;;;;;;2.22;1.40;;;15.80;99.90;;;;;;5055480;28;20623;-81
2021/10/02 12:01:00;;;;;;;1.67;1.10;;;15.90;99.90;;;;;;5055840;28;20175;-81
2021/10/02 12:03:32;;;;;;;1.95;1.52;;;15.90;99.90;;;;;;5055355;28;20203;-81
2021/10/02 12:06:00;;;;;;;1.38;1.38;;;15.90;99.90;;;;;;5055353;28;20185;-81
2021/10/02 12:08:27;;;;;;;2.20;1.40;;;16.00;99.90;;;;;;5056337;28;20173;-81
2021/10/02 12:10:55;;;;;;;2.47;1.70;;;16.10;99.90;;;;;;5055545;28;20675;-81
2021/10/02 12:13:23;;;;;;;1.58;1.48;;;16.10;99.90;;;;;;5054257;28;20246;-81
2021/10/02 12:15:56;;;;;;;1.75;1.65;;;16.10;99.90;;;;;;5055307;28;20192;-81
2021/10/02 12:18:22;;;;;;;1.58;1.58;;;16.30;99.90;;;;;;5055217;28;20150;-82
2021/10/02 12:20:47;;;;;;;1.58;1.48;;;16.30;99.90;;;;;;5055017;28;20329;-82
2021/10/02 12:23:13;;;;;;;1.58;1.58;;;16.50;99.90;;;;;;5053723;28;20169;-82
2021/10/02 12:25:42;;;;;;;1.42;1.42;;;16.50;99.90;;;;;;5055222;28;20173;-81
2021/10/02 12:28:07;;;;;;;1.50;1.40;;;16.60;99.90;;;;;;5054975;28;20169;-81
2021/10/02 12:30:33;;;;;;;1.63;1.50;;;16.70;99.90;;;;;;5054039;28;20199;-82
2021/10/02 12:33:01;;;;;;;1.45;1.38;;;16.80;99.90;;;;;;5055316;28;20188;-81
2021/10/02 12:35:27;;;;;;;1.38;1.38;;;16.70;99.90;;;;;;5053613;28;20208;-82
2021/10/02 12:37:56;;;;;;;1.40;1.40;;;16.70;99.90;;;;;;5053346;28;20165;-83
2021/10/02 12:40:24;;;;;;;1.42;1.40;;;16.70;99.90;;;;;;5053236;28;20196;-83
2021/10/02 12:42:53;;;;;;;1.27;1.27;;;16.60;99.90;;;;;;5054544;28;20535;-83
2021/10/02 12:45:23;;;;;;;1.67;1.58;;;16.60;99.90;;;;;;5054424;28;20207;-83
2021/10/02 12:47:53;;;;;;;1.48;1.48;;;16.50;99.90;;;;;;5053195;28;20217;-83
2021/10/02 12:50:24;;;;;;;1.60;1.50;;;16.50;99.90;;;;;;5054243;28;20582;-83
2021/10/02 12:52:56;;;;;;;2.42;1.67;;;16.30;99.90;;;;;;5054316;28;20331;-83
2021/10/02 12:55:22;;;;;;;1.75;1.75;;;16.20;99.90;;;;;;5052970;28;20240;-82
2021/10/02 12:57:48;;;;;;;2.15;1.60;;;16.20;99.90;;;;;;5054027;28;20180;-82
2021/10/02 13:00:24;;;;;;;1.75;1.65;;;16.20;99.90;;;;;;5054142;28;20153;-83
2021/10/02 13:02:55;;;;;;;1.92;1.83;;;16.10;99.90;;;;;;5052898;28;20173;-83
2021/10/02 13:05:25;;;;;;;2.08;1.88;;;16.70;99.90;;;;;;5054002;28;20185;-82
2021/10/02 13:08:04;;;;;;;2.00;1.90;;;16.20;99.90;;;;;;5054093;28;20154;-83
2021/10/02 13:10:30;;;;;;;1.80;1.70;;;16.20;99.90;;;;;;5054100;28;20200;-82
2021/10/02 13:13:09;;;;;;;1.58;1.58;;;16.20;99.90;;;;;;5052771;28;20569;-83
2021/10/02 13:15:50;;;;;;;1.70;1.60;;;16.30;99.90;;;;;;5053834;28;20165;-82
2021/10/02 13:18:23;;;;;;;1.70;1.60;;;16.30;99.90;;;;;;5052455;28;20572;-82
2021/10/02 13:21:06;;;;;;;2.10;1.50;;;16.40;99.90;;;;;;5036281;28;20180;-82
2021/10/02 13:23:40;;;;;;;1.63;1.63;;;16.40;99.90;;;;;;5053661;28;20684;-82
2021/10/02 13:26:12;;;;;;;1.65;1.42;;;16.60;99.90;;;;;;5052230;28;20188;-75
2021/10/02 13:28:49;;;;;;;1.67;1.60;;;16.60;99.90;;;;;;5053774;28;20175;-76
2021/10/02 13:31:14;;;;;;;1.85;1.42;;;16.60;99.90;;;;;;5053405;28;20223;-76
2021/10/02 13:33:42;;;;;;;1.95;1.77;;;16.50;99.90;;;;;;5053499;28;20204;-76
2021/10/02 13:36:24;;;;;;;1.65;1.55;;;16.50;99.90;;;;;;5052227;28;20176;-76
2021/10/02 13:38:49;;;;;;;2.63;1.48;;;16.50;99.90;;;;;;5053109;28;20195;-76
2021/10/02 13:41:16;;;;;;;1.88;1.77;;;16.50;99.90;;;;;;5053421;28;20165;-76
2021/10/02 13:43:54;;;;;;;1.33;1.33;;;16.50;99.90;;;;;;5053466;28;20196;-77
2021/10/02 13:46:41;;;;;;;1.63;1.52;;;16.50;99.90;;;;;;5053569;28;20160;-76
2021/10/02 13:49:10;;;;;;;1.58;1.58;;;16.50;99.90;;;;;;5053401;28;20187;-77
2021/10/02 13:51:36;;;;;;;1.30;1.30;;;16.40;99.90;;;;;;5053219;28;20248;-76
2021/10/02 13:54:02;;;;;;;2.65;1.60;;;16.40;99.90;;;;;;5053394;28;20174;-76
2021/10/02 13:56:43;;;;;;;1.70;1.60;;;16.30;99.90;;;;;;5052068;28;20206;-76
2021/10/02 13:59:10;;;;;;;1.92;1.83;;;16.40;99.90;;;;;;5052945;28;20164;-76
2021/10/02 14:01:36;;;;;;;4.15;1.65;;;16.30;99.90;;;;;;5053231;28;20235;-76
2021/10/02 14:04:03;;;;;;;1.70;1.60;;;16.20;99.90;;;;;;5053436;28;20169;-76
2021/10/02 14:06:28;;;;;;;2.22;1.50;;;16.10;99.90;;;;;;5053369;28;20259;-76
2021/10/02 14:08:54;;;;;;;1.80;1.70;;;16.00;99.90;;;;;;5052110;28;20260;-76
2021/10/02 14:11:20;;;;;;;2.10;1.67;;;15.90;99.90;;;;;;5053182;28;20197;-76
2021/10/02 14:13:46;;;;;;;1.63;1.63;;;16.00;99.90;;;;;;5053356;28;20757;-77
2021/10/02 14:16:13;;;;;;;2.05;1.50;;;16.00;99.90;;;;;;5052132;28;20169;-76
2021/10/02 14:18:39;;;;;;;4.10;1.80;;;15.90;99.90;;;;;;5052022;28;20219;-76
2021/10/02 14:21:05;;;;;;;2.03;1.83;;;16.00;99.90;;;;;;5053455;28;20173;-76
2021/10/02 14:23:30;;;;;;;1.80;1.70;;;16.20;99.90;;;;;;5053187;28;20256;-77
2021/10/02 14:25:56;;;;;;;1.95;1.85;;;16.00;99.90;;;;;;5053159;28;20169;-77
2021/10/02 14:28:24;;;;;;;1.67;1.50;;;15.90;99.90;;;;;;5053259;28;20201;-77
2021/10/02 14:30:50;;;;;;;1.70;1.60;;;15.90;99.90;;;;;;5053332;28;20185;-77
2021/10/02 14:33:16;;;;;;;1.70;1.60;;;15.90;99.90;;;;;;5053333;28;20197;-77
2021/10/02 14:35:44;;;;;;;2.17;1.25;;;15.80;99.90;;;;;;5051821;28;20537;-77
2021/10/02 14:38:09;;;;;;;1.70;1.60;;;15.90;99.90;;;;;;5055243;28;20583;-77
2021/10/02 14:40:35;;;;;;;1.60;1.50;;;15.90;99.90;;;;;;5056776;28;20226;-77
2021/10/02 14:43:01;;;;;;;1.30;1.30;;;15.80;99.90;;;;;;5056740;28;20313;-77
2021/10/02 14:45:27;;;;;;;1.20;1.20;;;15.80;99.90;;;;;;5055555;28;20180;-77
2021/10/02 14:47:53;;;;;;;1.20;1.20;;;16.60;99.90;;;;;;5056916;28;20166;-77
2021/10/02 14:50:18;;;;;;;3.80;1.48;;;16.00;99.90;;;;;;5056407;28;20232;-77
2021/10/02 14:52:47;;;;;;;2.65;1.55;;;15.80;99.90;;;;;;5056597;28;20180;-76
2021/10/02 14:55:13;;;;;;;2.25;1.70;;;15.70;99.90;;;;;;5056856;28;20185;-76
2021/10/02 14:57:40;;;;;;;1.92;1.70;;;15.80;99.90;;;;;;5055438;28;20518;-77
2021/10/02 15:00:09;;;;;;;3.25;1.58;;;15.80;99.90;;;;;;5056717;28;20169;-76
2021/10/02 15:02:36;;;;;;;3.08;1.63;;;15.60;99.90;;;;;;5056493;28;20172;-77
2021/10/02 15:05:02;;;;;;;4.07;1.58;;;16.10;99.90;;;;;;5056460;28;20626;-77
2021/10/02 15:07:28;;;;;;;1.40;1.40;;;15.60;99.90;;;;;;5056225;28;20642;-76
2021/10/02 15:09:54;;;;;;;1.70;1.60;;;15.90;99.90;;;;;;5056416;28;20203;-76
2021/10/02 15:12:21;;;;;;;1.70;1.60;;;15.80;99.90;;;;;;5056535;28;20223;-77
2021/10/02 15:14:47;;;;;;;2.10;1.90;;;15.60;99.90;;;;;;5056287;28;20173;-76
2021/10/02 15:17:14;;;;;;;2.20;1.88;;;15.80;99.90;;;;;;5056074;28;20175;-76
2021/10/02 15:19:41;;;;;;;2.70;1.80;;;15.80;99.90;;;;;;5056175;28;20191;-77
2021/10/02 15:22:10;;;;;;;2.47;1.88;;;15.50;99.90;;;;;;5056222;28;20714;-76
2021/10/02 15:24:59;;;;;;;2.45;1.73;;;15.60;99.90;;;;;;5056261;28;20286;-76
2021/10/02 15:27:32;;;;;;;2.17;2.08;;;15.90;99.90;;;;;;5055877;28;20188;-76
2021/10/02 15:29:58;;;;;;;4.32;2.10;;;15.60;99.90;;;;;;5055727;28;20193;-76
2021/10/02 15:32:26;;;;;;;2.15;2.05;;;15.60;99.90;;;;;;5037780;28;20181;-76
2021/10/02 15:34:53;;;;;;;1.90;1.77;;;15.60;99.90;;;;;;5056060;28;20169;-76
2021/10/02 15:37:18;;;;;;;3.00;2.17;;;15.40;99.90;;;;;;5055960;28;20690;-76
2021/10/02 15:39:44;;;;;;;2.03;1.88;;;15.60;99.90;;;;;;5054559;28;20216;-76
2021/10/02 15:42:11;;;;;;;2.75;2.65;;;15.70;99.90;;;;;;5055836;28;20173;-76
2021/10/02 15:44:38;;;;;;;2.33;2.10;;;15.40;99.90;;;;;;5055827;28;20185;-76
2021/10/02 15:47:06;;;;;;;2.55;2.35;;;15.40;99.90;;;;;;5055518;28;20303;-76
2021/10/02 15:49:37;;;;;;;3.60;2.35;;;15.40;99.90;;;;;;5055081;28;20224;-76
2021/10/02 15:52:07;;;;;;;2.83;2.20;;;15.80;99.90;;;;;;5055300;28;20165;-76
2021/10/02 15:54:33;;;;;;;4.63;2.83;;;15.30;99.90;;;;;;5054876;28;20173;-76
2021/10/02 15:57:02;;;;;;;3.75;2.70;;;15.10;99.90;;;;;;5053674;28;20180;-76
2021/10/02 15:59:32;;;;;;;2.95;2.85;;;15.20;99.90;;;;;;5054794;28;20177;-76
2021/10/02 16:02:05;;;;;;;2.55;2.35;;;15.10;99.90;;;;;;5055144;28;20169;-76
2021/10/02 16:04:38;;;;;;;2.47;2.38;;;15.10;99.90;;;;;;5055113;28;20227;-76
2021/10/02 16:07:06;;;;;;;4.03;2.63;;;14.70;99.90;;;;;;5054995;28;20635;-76
